sensor_id;sensor_type;location;lat;lon;timestamp;P1;durP1;ratioP1;P2;durP2;ratioP2
22250;SDS011;59348;52.158;5.588;2023-05-21T00:00:16;5.22;;;3.00;;
22250;SDS011;59348;52.158;5.588;2023-05-21T00:02:44;4.75;;;2.78;;
22250;SDS011;59348;52.158;5.588;2023-05-21T00:05:13;6.45;;;2.70;;
22250;SDS011;59348;52.158;5.588;2023-05-21T00:07:42;9.73;;;2.92;;
22250;SDS011;59348;52.158;5.588;2023-05-21T00:10:11;5.65;;;2.97;;
22250;SDS011;59348;52.158;5.588;2023-05-21T00:12:38;5.30;;;2.95;;
22250;SDS011;59348;52.158;5.588;2023-05-21T00:15:06;4.70;;;3.40;;
22250;SDS011;59348;52.158;5.588;2023-05-21T00:17:35;5.00;;;2.95;;
22250;SDS011;59348;52.158;5.588;2023-05-21T00:20:04;3.08;;;2.78;;
22250;SDS011;59348;52.158;5.588;2023-05-21T00:22:33;3.58;;;2.80;;
22250;SDS011;59348;52.158;5.588;2023-05-21T00:25:01;5.43;;;2.92;;
22250;SDS011;59348;52.158;5.588;2023-05-21T00:27:28;3.95;;;3.20;;
22250;SDS011;59348;52.158;5.588;2023-05-21T00:29:56;4.90;;;3.08;;
22250;SDS011;59348;52.158;5.588;2023-05-21T00:32:23;7.35;;;3.20;;
22250;SDS011;59348;52.158;5.588;2023-05-21T00:34:51;5.28;;;3.20;;
22250;SDS011;59348;52.158;5.588;2023-05-21T00:37:20;4.13;;;3.20;;
22250;SDS011;59348;52.158;5.588;2023-05-21T00:39:49;6.78;;;3.40;;
22250;SDS011;59348;52.158;5.588;2023-05-21T00:42:17;3.92;;;3.15;;
22250;SDS011;59348;52.158;5.588;2023-05-21T00:44:45;3.78;;;3.08;;
22250;SDS011;59348;52.158;5.588;2023-05-21T00:47:12;5.40;;;3.90;;
22250;SDS011;59348;52.158;5.588;2023-05-21T00:49:42;6.25;;;3.60;;
22250;SDS011;59348;52.158;5.588;2023-05-21T00:52:12;5.13;;;3.55;;
22250;SDS011;59348;52.158;5.588;2023-05-21T00:54:44;7.50;;;3.70;;
22250;SDS011;59348;52.158;5.588;2023-05-21T00:57:12;7.03;;;3.53;;
22250;SDS011;59348;52.158;5.588;2023-05-21T00:59:40;5.13;;;3.97;;
22250;SDS011;59348;52.158;5.588;2023-05-21T01:02:07;7.55;;;3.78;;
22250;SDS011;59348;52.158;5.588;2023-05-21T01:04:38;5.90;;;4.20;;
22250;SDS011;59348;52.158;5.588;2023-05-21T01:07:05;5.82;;;3.70;;
22250;SDS011;59348;52.158;5.588;2023-05-21T01:09:34;6.05;;;3.85;;
22250;SDS011;59348;52.158;5.588;2023-05-21T01:12:02;7.03;;;4.05;;
22250;SDS011;59348;52.158;5.588;2023-05-21T01:14:29;5.65;;;3.78;;
22250;SDS011;59348;52.158;5.588;2023-05-21T01:16:58;5.13;;;3.88;;
22250;SDS011;59348;52.158;5.588;2023-05-21T01:19:26;5.75;;;4.10;;
22250;SDS011;59348;52.158;5.588;2023-05-21T01:21:55;5.70;;;4.05;;
22250;SDS011;59348;52.158;5.588;2023-05-21T01:24:25;7.10;;;4.07;;
22250;SDS011;59348;52.158;5.588;2023-05-21T01:26:52;5.43;;;4.10;;
22250;SDS011;59348;52.158;5.588;2023-05-21T01:29:19;7.60;;;4.35;;
22250;SDS011;59348;52.158;5.588;2023-05-21T01:31:51;7.25;;;3.92;;
22250;SDS011;59348;52.158;5.588;2023-05-21T01:34:23;7.05;;;3.90;;
22250;SDS011;59348;52.158;5.588;2023-05-21T01:36:53;5.88;;;3.85;;
22250;SDS011;59348;52.158;5.588;2023-05-21T01:39:22;6.65;;;4.65;;
22250;SDS011;59348;52.158;5.588;2023-05-21T01:41:51;5.57;;;3.85;;
22250;SDS011;59348;52.158;5.588;2023-05-21T01:44:19;5.85;;;4.00;;
22250;SDS011;59348;52.158;5.588;2023-05-21T01:46:49;6.25;;;4.30;;
22250;SDS011;59348;52.158;5.588;2023-05-21T01:49:17;7.20;;;3.92;;
22250;SDS011;59348;52.158;5.588;2023-05-21T01:51:45;6.88;;;4.03;;
22250;SDS011;59348;52.158;5.588;2023-05-21T01:54:13;5.20;;;4.00;;
22250;SDS011;59348;52.158;5.588;2023-05-21T01:56:40;6.40;;;4.28;;
22250;SDS011;59348;52.158;5.588;2023-05-21T01:59:09;5.78;;;4.07;;
22250;SDS011;59348;52.158;5.588;2023-05-21T02:01:37;6.78;;;4.40;;
22250;SDS011;59348;52.158;5.588;2023-05-21T02:04:04;7.47;;;4.65;;
22250;SDS011;59348;52.158;5.588;2023-05-21T02:06:31;8.68;;;4.32;;
22250;SDS011;59348;52.158;5.588;2023-05-21T02:09:00;5.07;;;4.32;;
22250;SDS011;59348;52.158;5.588;2023-05-21T02:11:28;6.05;;;4.35;;
22250;SDS011;59348;52.158;5.588;2023-05-21T02:13:55;5.20;;;4.43;;
22250;SDS011;59348;52.158;5.588;2023-05-21T02:16:24;6.85;;;4.85;;
22250;SDS011;59348;52.158;5.588;2023-05-21T02:18:51;5.95;;;4.50;;
22250;SDS011;59348;52.158;5.588;2023-05-21T02:21:21;10.15;;;4.80;;
22250;SDS011;59348;52.158;5.588;2023-05-21T02:23:48;8.18;;;4.50;;
22250;SDS011;59348;52.158;5.588;2023-05-21T02:26:15;6.18;;;4.57;;
22250;SDS011;59348;52.158;5.588;2023-05-21T02:28:43;6.80;;;4.45;;
22250;SDS011;59348;52.158;5.588;2023-05-21T02:31:10;8.50;;;4.82;;
22250;SDS011;59348;52.158;5.588;2023-05-21T02:33:40;6.20;;;4.70;;
22250;SDS011;59348;52.158;5.588;2023-05-21T02:36:07;9.50;;;4.65;;
22250;SDS011;59348;52.158;5.588;2023-05-21T02:38:37;8.18;;;5.07;;
22250;SDS011;59348;52.158;5.588;2023-05-21T02:41:07;5.97;;;4.65;;
22250;SDS011;59348;52.158;5.588;2023-05-21T02:43:36;6.30;;;4.80;;
22250;SDS011;59348;52.158;5.588;2023-05-21T02:46:04;7.25;;;4.93;;
22250;SDS011;59348;52.158;5.588;2023-05-21T02:48:31;6.60;;;4.68;;
22250;SDS011;59348;52.158;5.588;2023-05-21T02:51:00;5.07;;;4.57;;
22250;SDS011;59348;52.158;5.588;2023-05-21T02:53:28;9.43;;;5.07;;
22250;SDS011;59348;52.158;5.588;2023-05-21T02:55:55;7.05;;;4.88;;
22250;SDS011;59348;52.158;5.588;2023-05-21T02:58:22;8.20;;;5.13;;
22250;SDS011;59348;52.158;5.588;2023-05-21T03:00:50;7.60;;;4.82;;
22250;SDS011;59348;52.158;5.588;2023-05-21T03:03:17;5.47;;;4.68;;
22250;SDS011;59348;52.158;5.588;2023-05-21T03:05:45;7.20;;;5.20;;
22250;SDS011;59348;52.158;5.588;2023-05-21T03:08:13;5.90;;;4.50;;
22250;SDS011;59348;52.158;5.588;2023-05-21T03:10:41;6.93;;;5.28;;
22250;SDS011;59348;52.158;5.588;2023-05-21T03:13:08;6.45;;;4.90;;
22250;SDS011;59348;52.158;5.588;2023-05-21T03:15:35;5.70;;;5.07;;
22250;SDS011;59348;52.158;5.588;2023-05-21T03:18:03;6.90;;;5.10;;
22250;SDS011;59348;52.158;5.588;2023-05-21T03:20:30;7.22;;;4.93;;
22250;SDS011;59348;52.158;5.588;2023-05-21T03:22:57;6.88;;;4.95;;
22250;SDS011;59348;52.158;5.588;2023-05-21T03:25:29;8.57;;;5.43;;
22250;SDS011;59348;52.158;5.588;2023-05-21T03:27:56;7.93;;;5.53;;
22250;SDS011;59348;52.158;5.588;2023-05-21T03:30:23;8.32;;;4.80;;
22250;SDS011;59348;52.158;5.588;2023-05-21T03:32:51;7.15;;;5.35;;
22250;SDS011;59348;52.158;5.588;2023-05-21T03:35:18;6.85;;;4.97;;
22250;SDS011;59348;52.158;5.588;2023-05-21T03:37:45;5.93;;;4.72;;
22250;SDS011;59348;52.158;5.588;2023-05-21T03:40:13;7.43;;;5.40;;
22250;SDS011;59348;52.158;5.588;2023-05-21T03:42:42;8.82;;;5.88;;
22250;SDS011;59348;52.158;5.588;2023-05-21T03:45:09;9.52;;;5.30;;
22250;SDS011;59348;52.158;5.588;2023-05-21T03:47:36;9.32;;;5.20;;
22250;SDS011;59348;52.158;5.588;2023-05-21T03:50:06;6.25;;;5.32;;
22250;SDS011;59348;52.158;5.588;2023-05-21T03:52:33;7.25;;;5.38;;
22250;SDS011;59348;52.158;5.588;2023-05-21T03:55:00;9.18;;;5.50;;
22250;SDS011;59348;52.158;5.588;2023-05-21T03:57:29;7.75;;;5.60;;
22250;SDS011;59348;52.158;5.588;2023-05-21T03:59:57;7.25;;;5.50;;
22250;SDS011;59348;52.158;5.588;2023-05-21T04:02:25;12.02;;;5.60;;
22250;SDS011;59348;52.158;5.588;2023-05-21T04:04:52;9.35;;;5.60;;
22250;SDS011;59348;52.158;5.588;2023-05-21T04:07:20;8.93;;;5.65;;
22250;SDS011;59348;52.158;5.588;2023-05-21T04:09:48;8.38;;;5.60;;
22250;SDS011;59348;52.158;5.588;2023-05-21T04:12:15;7.30;;;5.20;;
22250;SDS011;59348;52.158;5.588;2023-05-21T04:14:44;7.82;;;5.68;;
22250;SDS011;59348;52.158;5.588;2023-05-21T04:17:12;8.18;;;5.60;;
22250;SDS011;59348;52.158;5.588;2023-05-21T04:19:39;7.03;;;5.50;;
22250;SDS011;59348;52.158;5.588;2023-05-21T04:22:09;8.43;;;5.80;;
22250;SDS011;59348;52.158;5.588;2023-05-21T04:24:36;8.38;;;5.45;;
22250;SDS011;59348;52.158;5.588;2023-05-21T04:27:04;7.47;;;5.55;;
22250;SDS011;59348;52.158;5.588;2023-05-21T04:29:34;6.80;;;5.22;;
22250;SDS011;59348;52.158;5.588;2023-05-21T04:32:06;7.13;;;5.72;;
22250;SDS011;59348;52.158;5.588;2023-05-21T04:34:35;9.15;;;5.63;;
22250;SDS011;59348;52.158;5.588;2023-05-21T04:37:03;7.88;;;5.32;;
22250;SDS011;59348;52.158;5.588;2023-05-21T04:39:31;6.63;;;5.40;;
22250;SDS011;59348;52.158;5.588;2023-05-21T04:41:58;9.07;;;5.53;;
22250;SDS011;59348;52.158;5.588;2023-05-21T04:44:26;10.48;;;5.28;;
22250;SDS011;59348;52.158;5.588;2023-05-21T04:46:53;8.15;;;5.38;;
22250;SDS011;59348;52.158;5.588;2023-05-21T04:49:21;7.32;;;5.50;;
22250;SDS011;59348;52.158;5.588;2023-05-21T04:51:50;10.07;;;5.70;;
22250;SDS011;59348;52.158;5.588;2023-05-21T04:54:17;9.00;;;5.32;;
22250;SDS011;59348;52.158;5.588;2023-05-21T04:56:44;7.80;;;5.68;;
22250;SDS011;59348;52.158;5.588;2023-05-21T04:59:12;9.80;;;5.70;;
22250;SDS011;59348;52.158;5.588;2023-05-21T05:01:42;8.65;;;5.53;;
22250;SDS011;59348;52.158;5.588;2023-05-21T05:04:09;6.70;;;5.38;;
22250;SDS011;59348;52.158;5.588;2023-05-21T05:06:37;6.80;;;5.70;;
22250;SDS011;59348;52.158;5.588;2023-05-21T05:09:06;6.30;;;5.50;;
22250;SDS011;59348;52.158;5.588;2023-05-21T05:11:33;7.65;;;5.57;;
22250;SDS011;59348;52.158;5.588;2023-05-21T05:14:00;7.20;;;5.50;;
22250;SDS011;59348;52.158;5.588;2023-05-21T05:16:28;6.60;;;5.68;;
22250;SDS011;59348;52.158;5.588;2023-05-21T05:18:55;6.55;;;5.68;;
22250;SDS011;59348;52.158;5.588;2023-05-21T05:21:24;8.15;;;5.70;;
22250;SDS011;59348;52.158;5.588;2023-05-21T05:23:51;7.90;;;5.53;;
22250;SDS011;59348;52.158;5.588;2023-05-21T05:26:20;7.13;;;5.82;;
22250;SDS011;59348;52.158;5.588;2023-05-21T05:28:47;9.32;;;6.00;;
22250;SDS011;59348;52.158;5.588;2023-05-21T05:31:16;8.65;;;5.70;;
22250;SDS011;59348;52.158;5.588;2023-05-21T05:33:44;7.50;;;5.60;;
22250;SDS011;59348;52.158;5.588;2023-05-21T05:36:12;9.27;;;6.05;;
22250;SDS011;59348;52.158;5.588;2023-05-21T05:38:39;9.50;;;5.88;;
22250;SDS011;59348;52.158;5.588;2023-05-21T05:41:07;9.50;;;5.85;;
22250;SDS011;59348;52.158;5.588;2023-05-21T05:43:36;9.52;;;5.80;;
22250;SDS011;59348;52.158;5.588;2023-05-21T05:46:04;9.10;;;5.47;;
22250;SDS011;59348;52.158;5.588;2023-05-21T05:48:31;7.22;;;5.50;;
22250;SDS011;59348;52.158;5.588;2023-05-21T05:50:58;9.32;;;6.07;;
22250;SDS011;59348;52.158;5.588;2023-05-21T05:53:25;11.25;;;6.00;;
22250;SDS011;59348;52.158;5.588;2023-05-21T05:55:53;9.10;;;6.28;;
22250;SDS011;59348;52.158;5.588;2023-05-21T05:58:20;8.73;;;5.70;;
22250;SDS011;59348;52.158;5.588;2023-05-21T06:00:49;8.98;;;5.72;;
22250;SDS011;59348;52.158;5.588;2023-05-21T06:03:16;7.97;;;6.03;;
22250;SDS011;59348;52.158;5.588;2023-05-21T06:05:43;8.73;;;6.00;;
22250;SDS011;59348;52.158;5.588;2023-05-21T06:08:11;9.13;;;5.65;;
22250;SDS011;59348;52.158;5.588;2023-05-21T06:10:38;10.38;;;6.38;;
22250;SDS011;59348;52.158;5.588;2023-05-21T06:13:05;10.18;;;5.90;;
22250;SDS011;59348;52.158;5.588;2023-05-21T06:15:33;8.95;;;6.50;;
22250;SDS011;59348;52.158;5.588;2023-05-21T06:18:01;10.07;;;6.50;;
22250;SDS011;59348;52.158;5.588;2023-05-21T06:20:28;8.40;;;6.30;;
22250;SDS011;59348;52.158;5.588;2023-05-21T06:22:58;12.27;;;6.40;;
22250;SDS011;59348;52.158;5.588;2023-05-21T06:25:25;11.15;;;6.90;;
22250;SDS011;59348;52.158;5.588;2023-05-21T06:27:52;9.13;;;6.35;;
22250;SDS011;59348;52.158;5.588;2023-05-21T06:30:21;8.77;;;6.00;;
22250;SDS011;59348;52.158;5.588;2023-05-21T06:32:48;9.48;;;6.85;;
22250;SDS011;59348;52.158;5.588;2023-05-21T06:35:16;10.57;;;6.70;;
22250;SDS011;59348;52.158;5.588;2023-05-21T06:37:44;8.25;;;6.43;;
22250;SDS011;59348;52.158;5.588;2023-05-21T06:40:12;8.65;;;6.38;;
22250;SDS011;59348;52.158;5.588;2023-05-21T06:42:40;9.75;;;6.32;;
22250;SDS011;59348;52.158;5.588;2023-05-21T06:45:07;9.48;;;6.35;;
22250;SDS011;59348;52.158;5.588;2023-05-21T06:47:34;10.13;;;6.30;;
22250;SDS011;59348;52.158;5.588;2023-05-21T06:50:03;10.27;;;6.47;;
22250;SDS011;59348;52.158;5.588;2023-05-21T06:52:32;10.18;;;7.00;;
22250;SDS011;59348;52.158;5.588;2023-05-21T06:54:59;10.18;;;6.35;;
22250;SDS011;59348;52.158;5.588;2023-05-21T06:57:27;9.40;;;7.38;;
22250;SDS011;59348;52.158;5.588;2023-05-21T06:59:55;7.00;;;6.07;;
22250;SDS011;59348;52.158;5.588;2023-05-21T07:02:23;9.10;;;6.80;;
22250;SDS011;59348;52.158;5.588;2023-05-21T07:04:50;8.50;;;6.70;;
22250;SDS011;59348;52.158;5.588;2023-05-21T07:07:17;14.27;;;6.75;;
22250;SDS011;59348;52.158;5.588;2023-05-21T07:09:46;11.07;;;7.03;;
22250;SDS011;59348;52.158;5.588;2023-05-21T07:12:13;8.50;;;6.38;;
22250;SDS011;59348;52.158;5.588;2023-05-21T07:14:41;8.93;;;6.50;;
22250;SDS011;59348;52.158;5.588;2023-05-21T07:17:08;11.35;;;6.95;;
22250;SDS011;59348;52.158;5.588;2023-05-21T07:19:35;8.82;;;7.07;;
22250;SDS011;59348;52.158;5.588;2023-05-21T07:22:03;11.73;;;7.13;;
22250;SDS011;59348;52.158;5.588;2023-05-21T07:24:31;10.05;;;6.95;;
22250;SDS011;59348;52.158;5.588;2023-05-21T07:26:59;11.00;;;7.10;;
22250;SDS011;59348;52.158;5.588;2023-05-21T07:29:30;10.30;;;6.80;;
22250;SDS011;59348;52.158;5.588;2023-05-21T07:31:57;8.73;;;6.80;;
22250;SDS011;59348;52.158;5.588;2023-05-21T07:34:24;12.07;;;6.93;;
22250;SDS011;59348;52.158;5.588;2023-05-21T07:36:52;8.88;;;6.57;;
22250;SDS011;59348;52.158;5.588;2023-05-21T07:39:19;10.48;;;6.75;;
22250;SDS011;59348;52.158;5.588;2023-05-21T07:41:47;11.52;;;6.68;;
22250;SDS011;59348;52.158;5.588;2023-05-21T07:44:15;11.30;;;7.28;;
22250;SDS011;59348;52.158;5.588;2023-05-21T07:46:43;10.90;;;6.50;;
22250;SDS011;59348;52.158;5.588;2023-05-21T07:49:10;11.77;;;7.13;;
22250;SDS011;59348;52.158;5.588;2023-05-21T07:51:41;10.23;;;6.13;;
22250;SDS011;59348;52.158;5.588;2023-05-21T07:54:10;9.38;;;6.40;;
22250;SDS011;59348;52.158;5.588;2023-05-21T07:56:37;8.25;;;6.43;;
22250;SDS011;59348;52.158;5.588;2023-05-21T07:59:04;9.30;;;6.03;;
22250;SDS011;59348;52.158;5.588;2023-05-21T08:01:33;10.05;;;6.78;;
22250;SDS011;59348;52.158;5.588;2023-05-21T08:04:01;10.77;;;7.00;;
22250;SDS011;59348;52.158;5.588;2023-05-21T08:06:30;9.77;;;6.63;;
22250;SDS011;59348;52.158;5.588;2023-05-21T08:08:58;9.15;;;6.05;;
22250;SDS011;59348;52.158;5.588;2023-05-21T08:11:26;8.45;;;6.47;;
22250;SDS011;59348;52.158;5.588;2023-05-21T08:13:54;9.77;;;6.78;;
22250;SDS011;59348;52.158;5.588;2023-05-21T08:16:21;9.23;;;6.57;;
22250;SDS011;59348;52.158;5.588;2023-05-21T08:18:50;10.77;;;6.80;;
22250;SDS011;59348;52.158;5.588;2023-05-21T08:21:18;8.52;;;6.35;;
22250;SDS011;59348;52.158;5.588;2023-05-21T08:23:45;9.65;;;6.70;;
22250;SDS011;59348;52.158;5.588;2023-05-21T08:26:13;11.73;;;7.07;;
22250;SDS011;59348;52.158;5.588;2023-05-21T08:28:41;10.43;;;6.60;;
22250;SDS011;59348;52.158;5.588;2023-05-21T08:31:08;9.35;;;6.65;;
22250;SDS011;59348;52.158;5.588;2023-05-21T08:33:36;9.52;;;6.90;;
22250;SDS011;59348;52.158;5.588;2023-05-21T08:36:05;10.75;;;6.75;;
22250;SDS011;59348;52.158;5.588;2023-05-21T08:38:34;9.00;;;6.82;;
22250;SDS011;59348;52.158;5.588;2023-05-21T08:41:02;9.23;;;6.60;;
22250;SDS011;59348;52.158;5.588;2023-05-21T08:43:31;15.23;;;6.80;;
22250;SDS011;59348;52.158;5.588;2023-05-21T08:45:59;9.88;;;6.53;;
22250;SDS011;59348;52.158;5.588;2023-05-21T08:48:29;9.15;;;6.38;;
22250;SDS011;59348;52.158;5.588;2023-05-21T08:50:57;8.07;;;6.80;;
22250;SDS011;59348;52.158;5.588;2023-05-21T08:53:26;12.45;;;7.35;;
22250;SDS011;59348;52.158;5.588;2023-05-21T08:55:53;9.38;;;7.00;;
22250;SDS011;59348;52.158;5.588;2023-05-21T08:58:23;9.75;;;7.28;;
22250;SDS011;59348;52.158;5.588;2023-05-21T09:00:50;9.98;;;6.93;;
22250;SDS011;59348;52.158;5.588;2023-05-21T09:03:17;10.15;;;6.65;;
22250;SDS011;59348;52.158;5.588;2023-05-21T09:05:46;8.57;;;6.70;;
22250;SDS011;59348;52.158;5.588;2023-05-21T09:08:15;12.13;;;7.03;;
22250;SDS011;59348;52.158;5.588;2023-05-21T09:10:45;12.57;;;7.03;;
22250;SDS011;59348;52.158;5.588;2023-05-21T09:13:13;7.95;;;6.18;;
22250;SDS011;59348;52.158;5.588;2023-05-21T09:15:41;12.15;;;6.60;;
22250;SDS011;59348;52.158;5.588;2023-05-21T09:18:08;9.43;;;6.32;;
22250;SDS011;59348;52.158;5.588;2023-05-21T09:20:36;9.38;;;6.80;;
22250;SDS011;59348;52.158;5.588;2023-05-21T09:23:04;11.73;;;6.63;;
22250;SDS011;59348;52.158;5.588;2023-05-21T09:25:36;7.68;;;6.55;;
22250;SDS011;59348;52.158;5.588;2023-05-21T09:28:09;7.95;;;6.47;;
22250;SDS011;59348;52.158;5.588;2023-05-21T09:30:36;9.93;;;6.13;;
22250;SDS011;59348;52.158;5.588;2023-05-21T09:33:09;6.90;;;6.15;;
22250;SDS011;59348;52.158;5.588;2023-05-21T09:35:37;8.50;;;6.72;;
22250;SDS011;59348;52.158;5.588;2023-05-21T09:38:12;8.82;;;6.50;;
22250;SDS011;59348;52.158;5.588;2023-05-21T09:40:42;9.23;;;6.38;;
22250;SDS011;59348;52.158;5.588;2023-05-21T09:43:13;13.20;;;7.00;;
22250;SDS011;59348;52.158;5.588;2023-05-21T09:45:49;11.88;;;6.40;;
22250;SDS011;59348;52.158;5.588;2023-05-21T09:48:16;9.40;;;6.65;;
22250;SDS011;59348;52.158;5.588;2023-05-21T09:50:43;8.60;;;6.30;;
22250;SDS011;59348;52.158;5.588;2023-05-21T09:53:11;12.57;;;7.00;;
22250;SDS011;59348;52.158;5.588;2023-05-21T09:55:41;7.85;;;6.63;;
22250;SDS011;59348;52.158;5.588;2023-05-21T09:58:09;7.25;;;6.40;;
22250;SDS011;59348;52.158;5.588;2023-05-21T10:00:38;8.45;;;6.38;;
22250;SDS011;59348;52.158;5.588;2023-05-21T10:03:08;8.55;;;6.53;;
22250;SDS011;59348;52.158;5.588;2023-05-21T10:05:36;8.90;;;6.80;;
22250;SDS011;59348;52.158;5.588;2023-05-21T10:08:03;9.73;;;7.18;;
22250;SDS011;59348;52.158;5.588;2023-05-21T10:10:31;9.25;;;7.28;;
22250;SDS011;59348;52.158;5.588;2023-05-21T10:12:59;11.95;;;6.88;;
22250;SDS011;59348;52.158;5.588;2023-05-21T10:15:27;8.80;;;6.50;;
22250;SDS011;59348;52.158;5.588;2023-05-21T10:17:57;9.07;;;6.82;;
22250;SDS011;59348;52.158;5.588;2023-05-21T10:20:25;10.75;;;7.35;;
22250;SDS011;59348;52.158;5.588;2023-05-21T10:22:52;10.35;;;7.00;;
22250;SDS011;59348;52.158;5.588;2023-05-21T10:25:20;11.90;;;7.07;;
22250;SDS011;59348;52.158;5.588;2023-05-21T10:27:48;10.82;;;6.82;;
22250;SDS011;59348;52.158;5.588;2023-05-21T10:30:16;11.00;;;6.97;;
22250;SDS011;59348;52.158;5.588;2023-05-21T10:32:44;9.30;;;6.90;;
22250;SDS011;59348;52.158;5.588;2023-05-21T10:35:15;10.70;;;7.35;;
22250;SDS011;59348;52.158;5.588;2023-05-21T10:37:42;10.30;;;7.43;;
22250;SDS011;59348;52.158;5.588;2023-05-21T10:40:10;9.38;;;7.93;;
22250;SDS011;59348;52.158;5.588;2023-05-21T10:42:46;12.18;;;7.70;;
22250;SDS011;59348;52.158;5.588;2023-05-21T10:45:19;11.98;;;8.00;;
22250;SDS011;59348;52.158;5.588;2023-05-21T10:47:53;12.00;;;9.52;;
22250;SDS011;59348;52.158;5.588;2023-05-21T10:50:31;16.67;;;10.18;;
22250;SDS011;59348;52.158;5.588;2023-05-21T10:53:04;10.75;;;8.90;;
22250;SDS011;59348;52.158;5.588;2023-05-21T10:55:35;10.55;;;8.35;;
22250;SDS011;59348;52.158;5.588;2023-05-21T10:58:11;11.30;;;8.43;;
22250;SDS011;59348;52.158;5.588;2023-05-21T11:00:43;11.05;;;8.70;;
22250;SDS011;59348;52.158;5.588;2023-05-21T11:03:12;11.68;;;9.52;;
22250;SDS011;59348;52.158;5.588;2023-05-21T11:05:49;13.40;;;9.70;;
22250;SDS011;59348;52.158;5.588;2023-05-21T11:08:20;10.63;;;9.20;;
22250;SDS011;59348;52.158;5.588;2023-05-21T11:10:51;13.35;;;9.55;;
22250;SDS011;59348;52.158;5.588;2023-05-21T11:13:20;14.38;;;9.65;;
22250;SDS011;59348;52.158;5.588;2023-05-21T11:21:16;12.40;;;9.55;;
22250;SDS011;59348;52.158;5.588;2023-05-21T11:23:47;12.15;;;9.38;;
22250;SDS011;59348;52.158;5.588;2023-05-21T11:26:14;13.50;;;8.63;;
22250;SDS011;59348;52.158;5.588;2023-05-21T11:28:41;10.88;;;9.10;;
22250;SDS011;59348;52.158;5.588;2023-05-21T11:36:34;11.18;;;9.77;;
22250;SDS011;59348;52.158;5.588;2023-05-21T11:39:07;12.88;;;10.25;;
22250;SDS011;59348;52.158;5.588;2023-05-21T11:44:18;13.23;;;9.90;;
22250;SDS011;59348;52.158;5.588;2023-05-21T11:46:48;14.10;;;9.63;;
22250;SDS011;59348;52.158;5.588;2023-05-21T11:49:17;13.88;;;9.70;;
22250;SDS011;59348;52.158;5.588;2023-05-21T11:51:45;11.57;;;9.30;;
22250;SDS011;59348;52.158;5.588;2023-05-21T11:54:13;13.60;;;9.10;;
22250;SDS011;59348;52.158;5.588;2023-05-21T11:56:41;11.65;;;9.82;;
22250;SDS011;59348;52.158;5.588;2023-05-21T11:59:13;11.60;;;9.38;;
22250;SDS011;59348;52.158;5.588;2023-05-21T12:01:41;12.05;;;9.75;;
22250;SDS011;59348;52.158;5.588;2023-05-21T12:04:09;13.70;;;9.90;;
22250;SDS011;59348;52.158;5.588;2023-05-21T12:06:36;14.55;;;9.80;;
22250;SDS011;59348;52.158;5.588;2023-05-21T12:09:08;10.70;;;9.55;;
22250;SDS011;59348;52.158;5.588;2023-05-21T12:11:36;12.13;;;9.60;;
22250;SDS011;59348;52.158;5.588;2023-05-21T12:14:05;11.23;;;9.10;;
22250;SDS011;59348;52.158;5.588;2023-05-21T12:16:34;13.02;;;9.75;;
22250;SDS011;59348;52.158;5.588;2023-05-21T12:19:01;13.48;;;9.75;;
22250;SDS011;59348;52.158;5.588;2023-05-21T12:21:29;12.15;;;9.77;;
22250;SDS011;59348;52.158;5.588;2023-05-21T12:23:56;14.38;;;9.77;;
22250;SDS011;59348;52.158;5.588;2023-05-21T12:26:25;13.63;;;9.13;;
22250;SDS011;59348;52.158;5.588;2023-05-21T12:28:52;16.58;;;9.65;;
22250;SDS011;59348;52.158;5.588;2023-05-21T12:31:20;10.10;;;8.68;;
22250;SDS011;59348;52.158;5.588;2023-05-21T12:33:47;12.45;;;9.80;;
22250;SDS011;59348;52.158;5.588;2023-05-21T12:36:22;14.25;;;9.57;;
22250;SDS011;59348;52.158;5.588;2023-05-21T12:38:51;12.82;;;9.43;;
22250;SDS011;59348;52.158;5.588;2023-05-21T12:41:20;10.50;;;9.27;;
22250;SDS011;59348;52.158;5.588;2023-05-21T12:43:49;13.07;;;9.88;;
22250;SDS011;59348;52.158;5.588;2023-05-21T12:46:17;13.98;;;9.38;;
22250;SDS011;59348;52.158;5.588;2023-05-21T12:48:47;13.45;;;9.90;;
22250;SDS011;59348;52.158;5.588;2023-05-21T12:51:15;12.85;;;9.75;;
22250;SDS011;59348;52.158;5.588;2023-05-21T12:53:43;14.52;;;9.80;;
22250;SDS011;59348;52.158;5.588;2023-05-21T12:56:10;11.27;;;9.52;;
22250;SDS011;59348;52.158;5.588;2023-05-21T12:58:37;13.70;;;9.82;;
22250;SDS011;59348;52.158;5.588;2023-05-21T13:01:07;13.25;;;10.35;;
22250;SDS011;59348;52.158;5.588;2023-05-21T13:03:34;15.13;;;10.23;;
22250;SDS011;59348;52.158;5.588;2023-05-21T13:06:02;17.45;;;9.60;;
22250;SDS011;59348;52.158;5.588;2023-05-21T13:08:32;11.68;;;9.40;;
22250;SDS011;59348;52.158;5.588;2023-05-21T13:11:00;13.93;;;10.13;;
22250;SDS011;59348;52.158;5.588;2023-05-21T13:13:27;14.68;;;9.73;;
22250;SDS011;59348;52.158;5.588;2023-05-21T13:15:54;11.80;;;10.10;;
22250;SDS011;59348;52.158;5.588;2023-05-21T13:18:25;13.95;;;10.02;;
22250;SDS011;59348;52.158;5.588;2023-05-21T13:20:53;13.55;;;10.32;;
22250;SDS011;59348;52.158;5.588;2023-05-21T13:23:20;13.63;;;10.20;;
22250;SDS011;59348;52.158;5.588;2023-05-21T13:25:47;18.48;;;10.68;;
22250;SDS011;59348;52.158;5.588;2023-05-21T13:28:15;16.90;;;10.50;;
22250;SDS011;59348;52.158;5.588;2023-05-21T13:30:42;15.68;;;10.85;;
22250;SDS011;59348;52.158;5.588;2023-05-21T13:33:10;12.55;;;10.30;;
22250;SDS011;59348;52.158;5.588;2023-05-21T13:35:38;15.02;;;10.38;;
22250;SDS011;59348;52.158;5.588;2023-05-21T13:38:06;14.32;;;10.00;;
22250;SDS011;59348;52.158;5.588;2023-05-21T13:40:33;16.98;;;11.10;;
22250;SDS011;59348;52.158;5.588;2023-05-21T13:43:00;11.95;;;9.73;;
22250;SDS011;59348;52.158;5.588;2023-05-21T13:45:27;15.63;;;10.20;;
22250;SDS011;59348;52.158;5.588;2023-05-21T13:47:55;13.10;;;10.68;;
22250;SDS011;59348;52.158;5.588;2023-05-21T13:50:23;12.45;;;10.70;;
22250;SDS011;59348;52.158;5.588;2023-05-21T13:52:52;14.55;;;10.95;;
22250;SDS011;59348;52.158;5.588;2023-05-21T13:55:19;13.90;;;10.38;;
22250;SDS011;59348;52.158;5.588;2023-05-21T13:57:48;13.23;;;10.90;;
22250;SDS011;59348;52.158;5.588;2023-05-21T14:00:15;14.15;;;10.63;;
22250;SDS011;59348;52.158;5.588;2023-05-21T14:02:42;14.13;;;9.98;;
22250;SDS011;59348;52.158;5.588;2023-05-21T14:05:10;18.73;;;10.90;;
22250;SDS011;59348;52.158;5.588;2023-05-21T14:07:37;13.52;;;9.93;;
22250;SDS011;59348;52.158;5.588;2023-05-21T14:10:07;15.25;;;10.90;;
22250;SDS011;59348;52.158;5.588;2023-05-21T14:12:35;15.57;;;10.23;;
22250;SDS011;59348;52.158;5.588;2023-05-21T14:15:03;15.65;;;10.57;;
22250;SDS011;59348;52.158;5.588;2023-05-21T14:17:30;13.18;;;10.55;;
22250;SDS011;59348;52.158;5.588;2023-05-21T14:19:57;13.68;;;10.68;;
22250;SDS011;59348;52.158;5.588;2023-05-21T14:22:25;13.32;;;10.43;;
22250;SDS011;59348;52.158;5.588;2023-05-21T14:24:52;17.08;;;11.02;;
22250;SDS011;59348;52.158;5.588;2023-05-21T14:27:23;13.40;;;10.63;;
22250;SDS011;59348;52.158;5.588;2023-05-21T14:29:53;15.73;;;11.30;;
22250;SDS011;59348;52.158;5.588;2023-05-21T14:32:20;12.30;;;11.00;;
22250;SDS011;59348;52.158;5.588;2023-05-21T14:34:47;14.82;;;10.93;;
22250;SDS011;59348;52.158;5.588;2023-05-21T14:37:14;13.52;;;10.25;;
22250;SDS011;59348;52.158;5.588;2023-05-21T14:39:41;12.52;;;10.55;;
22250;SDS011;59348;52.158;5.588;2023-05-21T14:42:09;13.80;;;10.57;;
22250;SDS011;59348;52.158;5.588;2023-05-21T14:44:38;13.45;;;10.35;;
22250;SDS011;59348;52.158;5.588;2023-05-21T14:47:06;11.63;;;10.43;;
22250;SDS011;59348;52.158;5.588;2023-05-21T14:49:33;12.63;;;10.18;;
22250;SDS011;59348;52.158;5.588;2023-05-21T14:52:00;17.85;;;10.52;;
22250;SDS011;59348;52.158;5.588;2023-05-21T14:54:27;16.63;;;11.20;;
22250;SDS011;59348;52.158;5.588;2023-05-21T14:56:55;16.95;;;10.95;;
22250;SDS011;59348;52.158;5.588;2023-05-21T14:59:22;13.95;;;10.00;;